Time;durP1;ratioP1;P1;durP2;ratioP2;P2;SDS_P1;SDS_P2;PMS_P1;PMS_P2;Temp;Humidity;BMP_temperature;BMP_pressure;BME280_temperature;BME280_humidity;BME280_pressure;Samples;Min_cycle;Max_cycle;Signal;HPM_P1;HPM_P2
2023/07/16 04:02:41;;;;;;;0.60;0.10;;;20.10;99.90;;;;;;5119093;23;20496;-69
2023/07/16 04:05:10;;;;;;;0.87;0.40;;;19.80;99.90;;;;;;5013691;28;20498;-68
2023/07/16 04:07:38;;;;;;;0.70;0.57;;;19.90;99.90;;;;;;5013861;28;20439;-68
2023/07/16 04:10:06;;;;;;;0.60;0.20;;;19.90;99.90;;;;;;5013882;28;20563;-68
2023/07/16 04:12:34;;;;;;;0.60;0.10;;;19.80;99.90;;;;;;5013528;28;20456;-68
2023/07/16 04:15:08;;;;;;;0.70;0.20;;;19.80;99.90;;;;;;5014098;28;20441;-65
2023/07/16 04:17:36;;;;;;;0.80;0.40;;;19.70;99.90;;;;;;5013954;28;20502;-65
2023/07/16 04:20:07;;;;;;;0.80;0.40;;;19.70;99.90;;;;;;5013350;28;20820;-66
2023/07/16 04:22:35;;;;;;;2.00;1.27;;;19.60;99.90;;;;;;5012683;28;20484;-65
2023/07/16 04:25:04;;;;;;;2.07;0.50;;;19.50;99.90;;;;;;5013187;28;20552;-65
2023/07/16 04:27:32;;;;;;;4.40;0.60;;;19.40;99.90;;;;;;5013442;28;20533;-68
2023/07/16 04:30:00;;;;;;;2.90;0.43;;;19.30;99.90;;;;;;5013008;28;20950;-66
2023/07/16 04:32:28;;;;;;;0.60;0.20;;;19.30;99.90;;;;;;5012578;28;20496;-66
2023/07/16 04:34:56;;;;;;;0.60;0.20;;;19.20;99.90;;;;;;5012838;28;20473;-65
2023/07/16 04:37:25;;;;;;;0.60;0.30;;;15.70;99.90;;;;;;5012814;28;20440;-66
2023/07/16 04:39:53;;;;;;;0.70;0.40;;;;;;;;;;5012915;28;20476;-67
2023/07/16 04:42:21;;;;;;;1.33;0.50;;;19.50;99.90;;;;;;5012290;28;20480;-66
2023/07/16 04:44:49;;;;;;;1.13;0.37;;;;;;;;;;5012426;28;20490;-67
2023/07/16 04:47:17;;;;;;;0.60;0.17;;;;;;;;;;5011912;28;20490;-67
2023/07/16 04:49:45;;;;;;;1.33;1.23;;;19.50;99.90;;;;;;5012557;28;21042;-66
2023/07/16 04:52:14;;;;;;;1.10;0.87;;;20.70;99.90;;;;;;5012414;28;20838;-66
2023/07/16 04:54:43;;;;;;;0.70;0.40;;;19.20;99.90;;;;;;4997444;28;20461;-66
2023/07/16 04:57:11;;;;;;;0.60;0.20;;;19.10;99.90;;;;;;4988968;28;21059;-66
2023/07/16 04:59:39;;;;;;;0.60;0.20;;;19.20;99.90;;;;;;4999987;28;20787;-67
2023/07/16 05:02:07;;;;;;;0.60;0.20;;;19.40;99.90;;;;;;5009637;28;20480;-66
2023/07/16 05:04:36;;;;;;;1.37;0.70;;;19.40;99.90;;;;;;5012465;28;20445;-67
2023/07/16 05:07:04;;;;;;;0.70;0.27;;;19.40;99.90;;;;;;5012309;28;20946;-66
2023/07/16 05:09:32;;;;;;;0.70;0.30;;;19.40;99.90;;;;;;5012292;28;20447;-65
2023/07/16 05:12:02;;;;;;;0.60;0.20;;;19.60;99.90;;;;;;4998937;28;20485;-70
2023/07/16 05:14:30;;;;;;;0.60;0.20;;;19.80;99.90;;;;;;5003429;28;20851;-71
2023/07/16 05:16:58;;;;;;;0.60;0.10;;;;;;;;;;5012382;28;21024;-65
2023/07/16 05:19:26;;;;;;;0.60;0.10;;;;;;;;;;5012081;28;20452;-65
2023/07/16 05:21:54;;;;;;;1.70;0.67;;;20.00;99.90;;;;;;5011978;28;20573;-66
2023/07/16 05:24:22;;;;;;;1.43;0.40;;;20.00;99.90;;;;;;5012012;28;20876;-66
2023/07/16 05:26:51;;;;;;;0.60;0.23;;;19.90;99.90;;;;;;5011958;28;20452;-67
2023/07/16 05:29:20;;;;;;;0.70;0.23;;;19.80;99.90;;;;;;5011987;28;20448;-67
2023/07/16 05:31:48;;;;;;;1.97;1.00;;;19.80;99.90;;;;;;5011941;28;20587;-66
2023/07/16 05:34:16;;;;;;;0.90;0.40;;;19.70;99.90;;;;;;5011812;28;20444;-66
2023/07/16 05:36:44;;;;;;;1.73;1.27;;;19.60;99.90;;;;;;5012405;28;20445;-65
2023/07/16 05:39:13;;;;;;;0.70;0.30;;;19.70;99.90;;;;;;5012116;28;20479;-66
2023/07/16 05:41:42;;;;;;;1.43;0.63;;;19.70;99.90;;;;;;5012202;28;21001;-65
2023/07/16 05:44:11;;;;;;;0.60;0.10;;;19.70;99.90;;;;;;5012422;28;20452;-65
2023/07/16 05:46:40;;;;;;;0.60;0.20;;;19.90;99.90;;;;;;5012345;28;20448;-66
2023/07/16 05:49:08;;;;;;;0.67;0.30;;;20.10;99.90;;;;;;5012188;28;20450;-64
2023/07/16 05:51:36;;;;;;;0.87;0.60;;;;;;;;;;5012117;28;20463;-65
2023/07/16 05:54:05;;;;;;;1.23;0.77;;;;;;;;;;5011972;28;20924;-65
2023/07/16 05:56:32;;;;;;;1.40;0.50;;;20.20;99.90;;;;;;5012026;28;20503;-65
2023/07/16 05:59:00;;;;;;;0.87;0.40;;;20.20;99.90;;;;;;5011925;28;20448;-65
2023/07/16 06:01:28;;;;;;;0.80;0.60;;;20.30;99.90;;;;;;5011628;28;20487;-68
2023/07/16 06:03:58;;;;;;;0.70;0.40;;;20.10;99.90;;;;;;5011495;28;20476;-66
2023/07/16 06:06:29;;;;;;;5.80;2.10;;;20.00;99.90;;;;;;5011847;28;20522;-65
2023/07/16 06:08:57;;;;;;;0.70;0.30;;;19.90;99.90;;;;;;5011969;28;21026;-65
2023/07/16 06:11:25;;;;;;;0.60;0.20;;;20.00;99.90;;;;;;5011082;28;20464;-65
2023/07/16 06:13:55;;;;;;;1.53;0.70;;;20.00;99.90;;;;;;5010752;28;20539;-65
2023/07/16 06:16:23;;;;;;;0.60;0.10;;;20.00;99.90;;;;;;4995262;28;20445;-65
2023/07/16 06:18:51;;;;;;;0.60;0.20;;;19.80;99.90;;;;;;5000230;28;20444;-66
2023/07/16 06:21:20;;;;;;;0.60;0.20;;;19.90;99.90;;;;;;5010802;28;20492;-64
2023/07/16 06:23:48;;;;;;;0.60;0.20;;;;;;;;;;5011956;28;21068;-66
2023/07/16 06:26:16;;;;;;;0.70;0.43;;;;;;;;;;5016022;28;20460;-66
2023/07/16 06:28:49;;;;;;;0.70;0.40;;;20.10;99.90;;;;;;4998602;28;20445;-66
2023/07/16 06:31:17;;;;;;;0.70;0.23;;;20.20;99.90;;;;;;4995588;28;20496;-66
2023/07/16 06:33:46;;;;;;;0.60;0.17;;;20.30;99.90;;;;;;4995274;28;20453;-66
2023/07/16 06:36:14;;;;;;;0.70;0.20;;;20.40;99.90;;;;;;4995473;28;20449;-66
2023/07/16 06:38:44;;;;;;;0.87;0.73;;;20.40;99.90;;;;;;4995747;28;20469;-65
2023/07/16 06:41:12;;;;;;;0.60;0.20;;;20.30;99.90;;;;;;4995955;28;20485;-67
2023/07/16 06:43:40;;;;;;;1.03;0.20;;;20.20;99.90;;;;;;4995279;28;20535;-67
2023/07/16 06:46:08;;;;;;;0.60;0.10;;;20.20;99.90;;;;;;4994641;28;20533;-67
2023/07/16 06:48:36;;;;;;;1.10;0.50;;;20.30;99.90;;;;;;4997847;28;20533;-67
2023/07/16 06:51:04;;;;;;;0.60;0.10;;;20.40;99.90;;;;;;4990748;28;20505;-66
2023/07/16 06:53:32;;;;;;;0.97;0.37;;;20.40;99.90;;;;;;4976132;28;20469;-67
2023/07/16 06:56:02;;;;;;;0.63;0.30;;;20.50;99.90;;;;;;4975725;28;20446;-67
2023/07/16 06:58:33;;;;;;;1.80;0.73;;;20.40;99.90;;;;;;4975684;28;20522;-66
2023/07/16 07:01:01;;;;;;;0.70;0.20;;;20.40;99.90;;;;;;4975428;28;20485;-67
2023/07/16 07:03:30;;;;;;;1.53;1.17;;;20.40;99.90;;;;;;4975335;28;20518;-67
2023/07/16 07:05:58;;;;;;;0.93;0.70;;;20.40;99.90;;;;;;4975645;28;20443;-67
2023/07/16 07:08:26;;;;;;;0.60;0.20;;;20.20;95.20;;;;;;4975409;28;20458;-68
2023/07/16 07:10:54;;;;;;;3.53;1.83;;;20.00;87.70;;;;;;4989450;28;20457;-67
2023/07/16 07:13:23;;;;;;;0.90;0.73;;;20.00;87.20;;;;;;5013883;28;20441;-67
2023/07/16 07:15:52;;;;;;;2.40;0.70;;;;;;;;;;5014539;28;20500;-66
2023/07/16 07:18:20;;;;;;;0.83;0.53;;;20.00;86.10;;;;;;5014367;28;20440;-68
2023/07/16 07:20:48;;;;;;;0.60;0.20;;;20.00;88.30;;;;;;5014143;28;20462;-69
2023/07/16 07:23:17;;;;;;;1.73;1.20;;;20.10;79.40;;;;;;5014160;28;20490;-70
2023/07/16 07:25:49;;;;;;;3.87;2.30;;;20.20;76.20;;;;;;5013771;28;20461;-70
2023/07/16 07:28:17;;;;;;;3.37;3.00;;;20.20;71.70;;;;;;5013904;28;20546;-70
2023/07/16 07:30:46;;;;;;;0.80;0.20;;;20.20;71.80;;;;;;5014110;28;20456;-71
2023/07/16 07:33:14;;;;;;;0.60;0.20;;;20.40;69.40;;;;;;5014197;28;20444;-69
2023/07/16 07:35:43;;;;;;;1.57;0.87;;;20.50;63.10;;;;;;5013440;28;20446;-69
2023/07/16 07:38:11;;;;;;;1.00;0.67;;;20.60;60.10;;;;;;5013787;28;20540;-68
2023/07/16 07:40:39;;;;;;;2.40;2.07;;;20.60;55.70;;;;;;5013967;28;20452;-68
2023/07/16 07:43:07;;;;;;;1.33;0.70;;;20.50;46.20;;;;;;5013210;28;20902;-68
2023/07/16 07:45:35;;;;;;;1.83;1.67;;;20.40;49.50;;;;;;5013895;28;20437;-68
2023/07/16 07:48:06;;;;;;;0.60;0.20;;;20.50;55.00;;;;;;5013786;28;20445;-68
2023/07/16 07:50:34;;;;;;;1.00;0.70;;;;;;;;;;5013944;28;20445;-68
2023/07/16 07:53:02;;;;;;;0.70;0.37;;;20.70;41.90;;;;;;5013106;28;20539;-68
2023/07/16 07:55:30;;;;;;;0.70;0.20;;;20.60;40.90;;;;;;5013763;28;20885;-69
2023/07/16 07:57:58;;;;;;;0.60;0.20;;;20.80;41.90;;;;;;5013334;28;20449;-68
2023/07/16 08:00:26;;;;;;;0.60;0.20;;;20.90;41.30;;;;;;5013245;28;20943;-69
2023/07/16 08:02:54;;;;;;;0.70;0.70;;;20.90;38.10;;;;;;5013019;28;20457;-69
2023/07/16 08:05:24;;;;;;;0.70;0.57;;;21.00;30.40;;;;;;5013553;28;20445;-69
2023/07/16 08:07:53;;;;;;;0.70;0.30;;;21.00;27.00;;;;;;5013415;28;20446;-69
2023/07/16 08:10:21;;;;;;;0.70;0.30;;;21.10;23.30;;;;;;5010957;28;20520;-70
2023/07/16 08:12:49;;;;;;;0.80;0.60;;;21.20;22.20;;;;;;4991183;28;20546;-70
2023/07/16 08:15:18;;;;;;;0.93;0.27;;;21.30;21.10;;;;;;5001728;28;20445;-69
2023/07/16 08:17:47;;;;;;;1.30;1.17;;;21.30;16.20;;;;;;4993511;28;20562;-67
2023/07/16 08:20:16;;;;;;;0.60;0.27;;;21.20;15.90;;;;;;4994006;28;20441;-69
2023/07/16 08:22:45;;;;;;;12.00;2.70;;;21.20;10.50;;;;;;4993187;28;20501;-68
2023/07/16 08:25:14;;;;;;;0.60;0.17;;;;;;;;;;4993761;28;20481;-69
2023/07/16 08:27:41;;;;;;;2.90;0.67;;;21.30;5.60;;;;;;4993577;28;20454;-69
2023/07/16 08:30:10;;;;;;;0.80;0.50;;;21.30;5.60;;;;;;4993308;28;21239;-70
2023/07/16 08:32:38;;;;;;;0.60;0.20;;;21.20;5.80;;;;;;4993155;28;20482;-69
2023/07/16 08:35:07;;;;;;;0.80;0.47;;;21.30;3.60;;;;;;4992820;28;20474;-69
2023/07/16 08:37:35;;;;;;;0.90;0.57;;;21.30;2.40;;;;;;4990795;28;20452;-67
2023/07/16 08:40:05;;;;;;;0.80;0.57;;;21.30;1.00;;;;;;4998650;28;20445;-66
2023/07/16 08:42:33;;;;;;;0.90;0.50;;;21.30;1.20;;;;;;5000493;28;20827;-70
2023/07/16 08:45:02;;;;;;;6.50;0.87;;;21.40;1.00;;;;;;5006470;28;20928;-65
2023/07/16 08:47:30;;;;;;;0.67;0.23;;;21.40;1.00;;;;;;5012187;28;20482;-68
2023/07/16 08:50:00;;;;;;;1.73;1.60;;;21.60;1.00;;;;;;4999697;28;20567;-76
2023/07/16 08:52:29;;;;;;;1.27;1.03;;;21.70;1.00;;;;;;5004235;28;20487;-75
2023/07/16 08:54:57;;;;;;;1.80;1.30;;;21.80;1.00;;;;;;5003977;28;20445;-75
2023/07/16 08:57:28;;;;;;;0.70;0.30;;;21.70;1.00;;;;;;5012145;28;20540;-75
2023/07/16 08:59:56;;;;;;;0.70;0.30;;;21.60;1.00;;;;;;5013404;28;20975;-74
2023/07/16 09:02:24;;;;;;;0.80;0.40;;;;;;;;;;5012724;28;20520;-74
2023/07/16 09:04:54;;;;;;;2.07;0.93;;;21.40;1.00;;;;;;5013563;28;20531;-74
2023/07/16 09:07:22;;;;;;;0.70;0.43;;;21.20;1.00;;;;;;5013395;28;20476;-75
2023/07/16 09:09:58;;;;;;;1.73;0.97;;;21.20;1.00;;;;;;5012148;28;20959;-74
2023/07/16 09:12:29;;;;;;;2.43;0.77;;;21.40;1.00;;;;;;5013236;28;20464;-74
2023/07/16 09:14:57;;;;;;;0.80;0.30;;;;;;;;;;5013471;28;20477;-74
2023/07/16 09:17:26;;;;;;;0.70;0.20;;;21.50;1.00;;;;;;5013162;28;20448;-74
2023/07/16 09:19:54;;;;;;;1.67;1.13;;;21.60;1.00;;;;;;5013228;28;20460;-74
2023/07/16 09:22:23;;;;;;;3.13;0.60;;;21.60;1.00;;;;;;5013602;28;20469;-74
2023/07/16 09:24:51;;;;;;;10.60;4.33;;;21.70;1.00;;;;;;5013183;28;20567;-74
2023/07/16 09:27:19;;;;;;;0.70;0.40;;;;;;;;;;5013345;28;20481;-74
2023/07/16 09:29:49;;;;;;;0.70;0.33;;;21.90;1.00;;;;;;5013509;28;20529;-74
2023/07/16 09:32:19;;;;;;;1.03;0.80;;;22.00;1.00;;;;;;5013521;28;20552;-74
2023/07/16 09:34:50;;;;;;;0.60;0.20;;;21.90;1.00;;;;;;5013161;28;20513;-74
2023/07/16 09:37:19;;;;;;;0.70;0.30;;;22.00;1.00;;;;;;5013446;28;20445;-73
2023/07/16 09:39:48;;;;;;;14.13;1.40;;;22.00;1.00;;;;;;5012754;28;20483;-76
2023/07/16 09:42:18;;;;;;;2.30;0.90;;;22.00;1.00;;;;;;5012078;28;20564;-75
2023/07/16 09:44:50;;;;;;;1.60;0.40;;;21.80;1.00;;;;;;5012304;28;20504;-74
2023/07/16 09:47:18;;;;;;;0.63;0.30;;;21.90;1.00;;;;;;5012110;28;20445;-73
2023/07/16 09:49:47;;;;;;;0.70;0.30;;;;;;;;;;5012113;28;20449;-75
2023/07/16 09:52:15;;;;;;;0.80;0.30;;;;;;;;;;5012739;28;20504;-73
2023/07/16 09:54:46;;;;;;;4.23;3.13;;;21.90;1.00;;;;;;5014542;28;20535;-74
2023/07/16 09:57:15;;;;;;;36.83;17.90;;;21.70;1.00;;;;;;5014185;28;20832;-75
2023/07/16 09:59:46;;;;;;;0.60;0.20;;;21.70;1.00;;;;;;5022424;28;20477;-73
2023/07/16 10:02:15;;;;;;;1.23;0.77;;;22.00;1.00;;;;;;5028999;28;20488;-74
2023/07/16 10:04:44;;;;;;;3.90;0.73;;;22.10;1.00;;;;;;5025800;28;20481;-74
2023/07/16 10:07:21;;;;;;;2.10;1.20;;;22.00;1.00;;;;;;5021231;28;20503;-75
2023/07/16 10:09:54;;;;;;;1.70;0.90;;;22.20;1.00;;;;;;5018126;28;20549;-74
2023/07/16 10:12:22;;;;;;;0.77;0.30;;;22.30;1.00;;;;;;5016801;28;20841;-75
2023/07/16 10:14:52;;;;;;;0.90;0.30;;;22.30;1.00;;;;;;5015879;23;20503;-74
2023/07/16 10:17:22;;;;;;;1.90;0.83;;;22.50;1.00;;;;;;4978487;28;20531;-77
2023/07/16 10:19:57;;;;;;;0.70;0.20;;;22.30;1.00;;;;;;4977413;28;21000;-75
2023/07/16 10:22:36;;;;;;;4.43;0.83;;;22.40;1.00;;;;;;4975805;28;20442;-76
2023/07/16 10:25:09;;;;;;;0.70;0.20;;;22.50;1.00;;;;;;4989476;28;20965;-75
2023/07/16 10:27:37;;;;;;;1.27;0.90;;;22.50;1.00;;;;;;4996435;28;20455;-76
2023/07/16 10:30:07;;;;;;;0.70;0.20;;;22.70;1.00;;;;;;4996142;28;20449;-77
2023/07/16 10:32:36;;;;;;;1.50;0.57;;;;;;;;;;4995935;28;20494;-76
2023/07/16 10:35:06;;;;;;;0.90;0.30;;;23.00;1.00;;;;;;4996387;28;20466;-77
2023/07/16 10:37:34;;;;;;;1.60;1.20;;;23.00;1.00;;;;;;4995612;28;20542;-75
2023/07/16 10:40:04;;;;;;;1.10;0.93;;;23.00;1.00;;;;;;4996330;28;20451;-75
2023/07/16 10:42:32;;;;;;;0.70;0.20;;;23.10;1.00;;;;;;4995990;28;20469;-75
2023/07/16 10:45:02;;;;;;;1.43;0.60;;;23.10;1.00;;;;;;4996066;28;20483;-76
2023/07/16 10:47:33;;;;;;;2.07;0.30;;;23.30;1.00;;;;;;4995598;28;20542;-74
2023/07/16 10:50:06;;;;;;;1.47;0.30;;;23.40;1.00;;;;;;4995869;28;20447;-74
2023/07/16 10:52:34;;;;;;;0.70;0.20;;;23.40;1.00;;;;;;4995396;28;20452;-75
2023/07/16 10:55:02;;;;;;;0.70;0.10;;;23.50;1.00;;;;;;4995307;28;20499;-76
2023/07/16 10:57:30;;;;;;;1.57;0.87;;;23.60;1.00;;;;;;4995781;28;20462;-76
2023/07/16 11:00:00;;;;;;;0.70;0.20;;;23.50;1.00;;;;;;4996249;28;20480;-75
2023/07/16 11:02:28;;;;;;;0.70;0.30;;;23.50;1.00;;;;;;4996212;28;20443;-73
2023/07/16 11:04:57;;;;;;;1.00;0.30;;;23.50;1.00;;;;;;4998161;28;20527;-75
2023/07/16 11:07:27;;;;;;;0.90;0.60;;;23.60;1.00;;;;;;4996476;28;20455;-75
2023/07/16 11:09:55;;;;;;;0.80;0.57;;;23.50;1.00;;;;;;4997169;28;20481;-74
2023/07/16 11:12:24;;;;;;;0.93;0.50;;;23.20;1.00;;;;;;5018311;28;20453;-75
2023/07/16 11:14:55;;;;;;;2.60;0.60;;;22.80;1.00;;;;;;5025189;28;20500;-74
2023/07/16 11:17:25;;;;;;;0.70;0.23;;;22.70;1.00;;;;;;5020967;28;20449;-75
2023/07/16 11:19:55;;;;;;;0.90;0.47;;;22.70;1.00;;;;;;5016794;28;20553;-75
2023/07/16 11:22:27;;;;;;;0.70;0.30;;;22.70;1.00;;;;;;5016601;28;20492;-78
2023/07/16 11:24:56;;;;;;;0.90;0.30;;;22.90;1.00;;;;;;5016175;28;20471;-75
2023/07/16 11:27:26;;;;;;;2.63;1.03;;;22.90;1.00;;;;;;5016759;28;20485;-75
2023/07/16 11:29:56;;;;;;;0.70;0.20;;;23.10;1.00;;;;;;5018012;28;20473;-76
2023/07/16 11:32:28;;;;;;;2.03;1.43;;;23.20;1.00;;;;;;5018146;28;21109;-75
2023/07/16 11:34:57;;;;;;;0.90;0.57;;;23.30;1.00;;;;;;5020206;28;20466;-76
2023/07/16 11:37:28;;;;;;;21.77;13.03;;;23.40;1.00;;;;;;5031182;28;20499;-75
2023/07/16 11:39:57;;;;;;;2.83;1.07;;;23.50;1.00;;;;;;5026655;28;20533;-75
2023/07/16 11:42:35;;;;;;;0.90;0.53;;;23.50;1.00;;;;;;5027362;28;20455;-75
2023/07/16 11:45:04;;;;;;;0.80;0.30;;;23.60;1.00;;;;;;5023154;28;20552;-74
2023/07/16 11:47:32;;;;;;;0.70;0.33;;;23.70;1.00;;;;;;5025026;28;20540;-76
2023/07/16 11:50:00;;;;;;;1.20;0.93;;;23.60;1.00;;;;;;5020927;28;20486;-73
2023/07/16 11:52:31;;;;;;;0.70;0.40;;;23.60;1.00;;;;;;5024184;28;20494;-76
2023/07/16 11:55:00;;;;;;;0.70;0.10;;;23.50;1.00;;;;;;5020742;28;20482;-77
2023/07/16 11:57:28;;;;;;;1.53;0.93;;;23.50;1.00;;;;;;5016936;28;20819;-77
2023/07/16 11:59:57;;;;;;;1.00;0.57;;;23.50;1.00;;;;;;5017263;28;20462;-74
2023/07/16 12:02:27;;;;;;;2.37;1.30;;;23.40;1.00;;;;;;5016073;28;20439;-76
2023/07/16 12:04:55;;;;;;;6.03;2.50;;;23.50;1.00;;;;;;5018619;28;20510;-75
2023/07/16 12:07:35;;;;;;;2.30;1.13;;;23.30;1.00;;;;;;5018772;28;20522;-75
2023/07/16 12:10:07;;;;;;;0.70;0.43;;;;;;;;;;5017075;28;20489;-74
2023/07/16 12:12:37;;;;;;;9.03;1.90;;;23.40;1.00;;;;;;4996758;28;21009;-75
2023/07/16 12:15:10;;;;;;;1.03;0.60;;;23.40;1.00;;;;;;5006598;28;20659;-76
2023/07/16 12:17:38;;;;;;;1.00;0.87;;;23.60;1.00;;;;;;5005881;28;20472;-75
2023/07/16 12:20:07;;;;;;;0.70;0.20;;;;;;;;;;5008144;28;20443;-75
2023/07/16 12:22:37;;;;;;;1.30;1.00;;;23.90;1.00;;;;;;5008446;28;20463;-78
2023/07/16 12:25:05;;;;;;;0.97;0.50;;;24.20;1.00;;;;;;5000892;28;20990;-75
2023/07/16 12:27:33;;;;;;;0.70;0.30;;;24.30;1.00;;;;;;5002371;28;20476;-75
2023/07/16 12:30:02;;;;;;;4.20;3.20;;;;;;;;;;4995956;28;20462;-75
2023/07/16 12:32:29;;;;;;;3.70;2.33;;;24.20;1.00;;;;;;4996314;28;20448;-77
2023/07/16 12:35:00;;;;;;;0.90;0.30;;;24.20;1.00;;;;;;4993974;28;20535;-76
2023/07/16 12:37:27;;;;;;;0.80;0.20;;;24.30;1.00;;;;;;4994081;28;20568;-76
2023/07/16 12:39:57;;;;;;;0.97;0.40;;;24.40;1.00;;;;;;4993648;28;21021;-75
2023/07/16 12:42:24;;;;;;;1.67;0.53;;;24.50;1.00;;;;;;4992887;28;20463;-74
2023/07/16 12:44:52;;;;;;;1.80;0.80;;;24.30;1.00;;;;;;4993341;28;20510;-75
2023/07/16 12:47:20;;;;;;;0.80;0.30;;;24.30;1.00;;;;;;4993284;28;20570;-75
2023/07/16 12:49:48;;;;;;;1.30;0.63;;;24.40;1.00;;;;;;4993328;28;20456;-76
2023/07/16 12:52:16;;;;;;;0.87;0.60;;;24.40;1.00;;;;;;4993071;28;20484;-75
2023/07/16 12:54:44;;;;;;;1.10;0.23;;;24.50;1.00;;;;;;4993517;28;20469;-76
2023/07/16 12:57:13;;;;;;;1.93;1.00;;;24.60;1.00;;;;;;4993246;28;20447;-75
2023/07/16 12:59:41;;;;;;;2.40;1.33;;;24.60;1.00;;;;;;4999711;28;20555;-75
2023/07/16 13:02:09;;;;;;;4.10;1.40;;;24.40;1.00;;;;;;5001219;28;20484;-75
2023/07/16 13:04:37;;;;;;;1.10;0.83;;;24.30;1.00;;;;;;5000706;28;20472;-74
2023/07/16 13:07:05;;;;;;;1.00;0.43;;;24.30;1.00;;;;;;5003940;28;20500;-75
2023/07/16 13:09:33;;;;;;;1.37;0.87;;;24.60;1.00;;;;;;4998578;28;20479;-74
2023/07/16 13:12:01;;;;;;;0.70;0.20;;;24.70;1.00;;;;;;5015807;28;20475;-76
2023/07/16 13:14:30;;;;;;;1.97;0.90;;;;;;;;;;5019661;28;20479;-76
2023/07/16 13:16:58;;;;;;;1.97;1.00;;;24.90;1.00;;;;;;5021861;28;20526;-75
2023/07/16 13:19:26;;;;;;;1.87;0.90;;;24.90;1.00;;;;;;5020350;28;20455;-76
2023/07/16 13:21:54;;;;;;;0.90;0.30;;;24.70;1.00;;;;;;5015383;28;20446;-77
2023/07/16 13:24:22;;;;;;;1.17;0.73;;;24.70;1.00;;;;;;5013668;28;20562;-76
2023/07/16 13:26:49;;;;;;;0.70;0.20;;;24.70;1.00;;;;;;5013830;28;20482;-76
2023/07/16 13:29:17;;;;;;;2.60;1.80;;;24.80;1.00;;;;;;5014394;28;20448;-73
2023/07/16 13:31:47;;;;;;;2.03;0.83;;;;;;;;;;5016230;28;20502;-74
2023/07/16 13:34:15;;;;;;;0.80;0.60;;;24.90;1.00;;;;;;5013077;28;20494;-74
2023/07/16 13:36:43;;;;;;;1.33;0.87;;;24.90;1.00;;;;;;5013845;28;20451;-76
2023/07/16 13:39:13;;;;;;;2.00;1.07;;;24.80;1.00;;;;;;5015734;28;20451;-74
2023/07/16 13:41:41;;;;;;;1.07;0.97;;;24.80;1.00;;;;;;5022057;28;20451;-76
2023/07/16 13:44:08;;;;;;;0.90;0.63;;;24.90;1.00;;;;;;5025344;28;20470;-74
2023/07/16 13:46:37;;;;;;;0.70;0.20;;;24.90;1.00;;;;;;5022648;28;20507;-75
2023/07/16 13:49:07;;;;;;;1.60;0.87;;;24.90;1.00;;;;;;5021347;28;20440;-77
2023/07/16 13:51:35;;;;;;;0.70;0.20;;;24.80;1.00;;;;;;5018315;28;20484;-76
2023/07/16 13:54:02;;;;;;;0.70;0.20;;;24.90;1.00;;;;;;5021559;28;20837;-76
2023/07/16 13:56:31;;;;;;;1.07;0.97;;;24.90;1.00;;;;;;5022066;28;20880;-74
2023/07/16 13:58:59;;;;;;;2.83;1.73;;;24.90;1.00;;;;;;5016529;28;20453;-74
2023/07/16 14:01:27;;;;;;;0.70;0.30;;;24.90;1.00;;;;;;5016796;28;20446;-75
2023/07/16 14:03:55;;;;;;;2.20;0.87;;;25.10;1.00;;;;;;5020145;28;20464;-74
2023/07/16 14:06:24;;;;;;;0.80;0.20;;;25.10;1.00;;;;;;5019700;28;20450;-76
2023/07/16 14:08:52;;;;;;;0.70;0.20;;;25.20;1.00;;;;;;5024030;28;20447;-75
2023/07/16 14:11:21;;;;;;;1.73;1.33;;;;;;;;;;5026998;28;20444;-76
2023/07/16 14:13:51;;;;;;;1.00;0.60;;;25.40;1.00;;;;;;5017791;28;20459;-74
2023/07/16 14:16:19;;;;;;;1.70;0.50;;;25.40;1.00;;;;;;5020125;28;20467;-76
2023/07/16 14:18:51;;;;;;;0.70;0.30;;;25.10;1.00;;;;;;5013225;28;20444;-76
2023/07/16 14:21:20;;;;;;;1.33;0.87;;;25.20;1.00;;;;;;5014177;28;20511;-74
2023/07/16 14:23:50;;;;;;;0.87;0.20;;;25.10;1.00;;;;;;5017410;28;20595;-76
2023/07/16 14:26:17;;;;;;;0.70;0.10;;;25.10;1.00;;;;;;5013000;28;20476;-76
2023/07/16 14:28:46;;;;;;;0.70;0.30;;;25.20;1.00;;;;;;5021296;28;20459;-75
2023/07/16 14:31:15;;;;;;;0.90;0.50;;;25.10;1.00;;;;;;5017287;28;20503;-74
2023/07/16 14:33:46;;;;;;;3.27;2.30;;;25.30;1.00;;;;;;5019000;28;20450;-75
2023/07/16 14:36:14;;;;;;;1.33;1.03;;;25.30;1.00;;;;;;5017638;28;20444;-73
2023/07/16 14:38:43;;;;;;;3.10;1.90;;;25.30;1.00;;;;;;5013513;28;20498;-75
2023/07/16 14:41:12;;;;;;;3.10;1.13;;;25.20;1.00;;;;;;5014337;28;20501;-76
2023/07/16 14:43:40;;;;;;;1.40;0.57;;;25.40;1.00;;;;;;5012829;28;20436;-75
2023/07/16 14:46:15;;;;;;;0.90;0.40;;;25.40;1.00;;;;;;5014894;28;20478;-73
2023/07/16 14:48:44;;;;;;;1.13;1.03;;;25.30;1.00;;;;;;5016059;28;20479;-77
2023/07/16 14:51:12;;;;;;;1.10;0.60;;;25.20;1.00;;;;;;5015953;28;20498;-76
2023/07/16 14:53:41;;;;;;;1.57;0.40;;;25.20;1.00;;;;;;5014859;28;20817;-74
2023/07/16 14:56:10;;;;;;;0.90;0.53;;;25.20;1.00;;;;;;5016003;28;20451;-77
2023/07/16 14:58:39;;;;;;;3.90;0.67;;;25.20;1.00;;;;;;5017964;28;20534;-76
2023/07/16 15:01:07;;;;;;;0.87;0.30;;;25.40;1.00;;;;;;5018742;28;20509;-75
2023/07/16 15:03:37;;;;;;;7.00;1.77;;;25.40;1.00;;;;;;5018629;28;20927;-75
2023/07/16 15:06:05;;;;;;;2.87;1.70;;;25.30;1.00;;;;;;5017118;28;20479;-74
2023/07/16 15:08:33;;;;;;;0.70;0.20;;;25.20;1.00;;;;;;5015639;28;20563;-75
2023/07/16 15:11:01;;;;;;;1.20;1.00;;;25.20;1.00;;;;;;5007833;28;20452;-74
2023/07/16 15:13:30;;;;;;;0.80;0.30;;;;;;;;;;4996045;28;20449;-74
2023/07/16 15:15:59;;;;;;;1.33;0.47;;;25.20;1.00;;;;;;4996250;28;20919;-76
2023/07/16 15:18:27;;;;;;;1.20;0.67;;;25.60;1.00;;;;;;4996186;28;20447;-76
2023/07/16 15:20:58;;;;;;;1.10;1.00;;;25.60;1.00;;;;;;4996046;28;20918;-75
2023/07/16 15:23:26;;;;;;;1.20;1.10;;;25.70;1.00;;;;;;4995998;28;20476;-75
2023/07/16 15:25:55;;;;;;;1.20;0.50;;;25.80;1.00;;;;;;4995728;28;20535;-76
2023/07/16 15:28:23;;;;;;;1.37;0.83;;;25.80;1.00;;;;;;4996633;28;20504;-76
2023/07/16 15:30:50;;;;;;;1.00;0.60;;;25.90;1.00;;;;;;4996258;28;20598;-75
2023/07/16 15:33:19;;;;;;;1.57;0.63;;;26.20;1.00;;;;;;4995800;28;20452;-75
2023/07/16 15:35:51;;;;;;;0.70;0.20;;;;;;;;;;4998485;28;20500;-78
2023/07/16 15:38:27;;;;;;;1.93;1.43;;;26.50;1.00;;;;;;5001248;28;20526;-74
2023/07/16 15:40:56;;;;;;;1.17;0.57;;;26.60;1.00;;;;;;5001948;28;20951;-75
2023/07/16 15:43:25;;;;;;;0.80;0.30;;;;;;;;;;4998291;28;20843;-74
2023/07/16 15:45:53;;;;;;;2.03;0.90;;;26.60;1.00;;;;;;4997163;28;20464;-77
2023/07/16 15:48:22;;;;;;;0.70;0.20;;;26.70;1.00;;;;;;4996308;28;20495;-75
2023/07/16 15:50:57;;;;;;;2.57;1.70;;;26.60;1.00;;;;;;4996508;28;20507;-74
2023/07/16 15:53:24;;;;;;;0.90;0.37;;;26.10;1.00;;;;;;4996405;28;20531;-74
2023/07/16 15:55:54;;;;;;;2.30;2.03;;;26.10;1.00;;;;;;4995819;28;20507;-73
2023/07/16 15:58:22;;;;;;;1.17;0.67;;;26.10;1.00;;;;;;4995532;28;20447;-76
2023/07/16 16:00:50;;;;;;;0.70;0.20;;;26.00;1.00;;;;;;4998002;28;20480;-79
2023/07/16 16:03:18;;;;;;;3.53;1.53;;;26.20;1.00;;;;;;4998191;28;20445;-76
2023/07/16 16:05:47;;;;;;;1.93;0.93;;;;;;;;;;4998833;28;20473;-75
2023/07/16 16:08:17;;;;;;;0.70;0.10;;;26.30;1.00;;;;;;4999184;28;20516;-74
2023/07/16 16:10:48;;;;;;;0.70;0.30;;;26.40;1.00;;;;;;5005174;28;20443;-76
2023/07/16 16:13:17;;;;;;;1.00;0.83;;;27.00;1.00;;;;;;5018424;28;20506;-75
2023/07/16 16:15:45;;;;;;;1.80;1.50;;;;;;;;;;5041995;23;21088;-76
2023/07/16 16:18:15;;;;;;;0.70;0.17;;;26.70;1.00;;;;;;5014364;28;20444;-73
2023/07/16 16:20:48;;;;;;;1.83;1.30;;;26.60;1.00;;;;;;5014422;28;20466;-74
2023/07/16 16:23:17;;;;;;;1.23;0.60;;;;;;;;;;5013739;28;20452;-73
2023/07/16 16:25:47;;;;;;;2.30;1.30;;;26.50;1.00;;;;;;5013896;28;20464;-74
2023/07/16 16:28:17;;;;;;;6.37;1.80;;;;;;;;;;5014285;28;20491;-73
2023/07/16 16:30:45;;;;;;;0.70;0.10;;;26.80;1.00;;;;;;5013723;28;20540;-73
2023/07/16 16:33:13;;;;;;;0.90;0.40;;;26.80;1.00;;;;;;5013735;28;20440;-73
2023/07/16 16:35:43;;;;;;;0.70;0.20;;;26.70;1.00;;;;;;5013396;28;20468;-72
2023/07/16 16:38:13;;;;;;;2.80;1.83;;;;;;;;;;5013463;28;20530;-74
2023/07/16 16:40:42;;;;;;;0.70;0.20;;;27.00;1.00;;;;;;5013729;28;20535;-74
2023/07/16 16:43:11;;;;;;;1.53;0.57;;;;;;;;;;5013279;28;20542;-74
2023/07/16 16:45:41;;;;;;;7.03;1.90;;;27.20;1.00;;;;;;5013508;28;20452;-75
2023/07/16 16:48:10;;;;;;;0.70;0.17;;;27.20;1.00;;;;;;5013782;28;20507;-73
2023/07/16 16:50:38;;;;;;;1.57;1.40;;;27.30;1.00;;;;;;5013940;28;20456;-73
2023/07/16 16:53:06;;;;;;;0.97;0.67;;;27.20;1.00;;;;;;5016369;28;20475;-72
2023/07/16 16:55:36;;;;;;;0.70;0.20;;;;;;;;;;5016366;28;20539;-73
2023/07/16 16:58:04;;;;;;;0.70;0.30;;;27.50;1.00;;;;;;5017605;28;20443;-73
2023/07/16 17:00:32;;;;;;;0.90;0.40;;;27.70;1.00;;;;;;5016198;28;20444;-72
2023/07/16 17:03:00;;;;;;;0.73;0.50;;;27.70;1.00;;;;;;5014848;28;20502;-72
2023/07/16 17:05:29;;;;;;;1.63;1.33;;;27.70;1.00;;;;;;5018570;28;20552;-72
2023/07/16 17:07:58;;;;;;;2.13;0.50;;;27.20;1.00;;;;;;5015910;28;20516;-73
2023/07/16 17:10:25;;;;;;;0.70;0.30;;;27.00;1.00;;;;;;5014292;28;20444;-73
2023/07/16 17:12:55;;;;;;;1.60;1.50;;;26.70;1.00;;;;;;5015014;28;20464;-73